M/V Pat Voss — WDE7886 — position and weather

sailwx.info

Track history (hours):
 
Tides and Currents Weather Stations Pressure Air Temp Water Temp Dewpoint Dewpoint Depression Visibility Wind Speed Wind Dir Waves Ship Positions

M/V Pat Voss

Owner: Blessey Enterprises, Inc., Harahan, LA. More information available from US FCC via Universal Licensing System and Coast Guard Vessel Documentation Center.

Last reported at 2018-Jun-13 05:14 UTC. Time now 2018-Jun-19 04:12 UTC.
Position N 30°07' W 090°58'.

Length 29 m; draft 2.9 m.

Type: Towing. MMSI: 367398930.

Date/timePositionNaut miles runAvg speedWind from/ knotsBaromVisibWave heightAir tempDewpointWater temp
2018-Jun-13 05:14N 30°07' W 090°58'  
2018-Jun-05 17:37N 32°00' W 091°05'1 8.2
2018-Jun-05 17:26N 32°02' W 091°04'3 7.2
2018-Jun-05 16:59N 32°05' W 091°04'3 6.8
2018-Jun-05 16:30N 32°08' W 091°06'4 7.9
2018-Jun-05 16:01N 32°07' W 091°01'4 8.5
2018-Jun-05 15:30N 32°12' W 090°60'4 8.4
2018-Jun-05 15:01N 32°16' W 090°58'4 8.5
2018-Jun-05 14:30N 32°19' W 090°55'3 5.8
2018-Jun-05 14:00N 32°21' W 090°57'3 6.7
2018-Jun-05 13:30N 32°23' W 090°60'3 7.0
2018-Jun-05 13:01N 32°26' W 091°02'4 8.6
2018-Jun-05 12:30N 32°28' W 091°06'4 8.0
2018-Jun-05 12:01N 32°32' W 091°06'4 7.9
2018-Jun-05 11:28N 32°36' W 091°08'4 7.8
2018-Jun-05 11:01N 32°39' W 091°09'6 8.4
2018-Jun-05 10:20N 32°43' W 091°03'4 6.7
2018-Jun-05 09:45N 32°44' W 091°08'2 7.6
2018-Jun-05 09:30N 32°45' W 091°09'4 8.2
2018-Jun-05 09:00N 32°49' W 091°09'  
Track history (hours):
 
Tides and Currents Weather Stations Pressure Air Temp Water Temp Dewpoint Dewpoint Depression Visibility Wind Speed Wind Dir Waves Ship Positions

M/V Pat Voss

Owner: Blessey Enterprises, Inc., Harahan, LA. More information available from US FCC via Universal Licensing System and Coast Guard Vessel Documentation Center.

Last reported at 2018-Jun-13 05:14 UTC. Time now 2018-Jun-19 04:12 UTC.
Position N 30°07' W 090°58'.

Length 29 m; draft 2.9 m.

Type: Towing. MMSI: 367398930.

Date/timePositionNaut miles runAvg speedWind from/ knotsBaromVisibWave heightAir tempDewpointWater temp
2018-Jun-13 05:14N 30°07' W 090°58'  
2018-Jun-05 17:37N 32°00' W 091°05'1 8.2
2018-Jun-05 17:26N 32°02' W 091°04'3 7.2
2018-Jun-05 16:59N 32°05' W 091°04'3 6.8
2018-Jun-05 16:30N 32°08' W 091°06'4 7.9
2018-Jun-05 16:01N 32°07' W 091°01'4 8.5
2018-Jun-05 15:30N 32°12' W 090°60'4 8.4
2018-Jun-05 15:01N 32°16' W 090°58'4 8.5
2018-Jun-05 14:30N 32°19' W 090°55'3 5.8
2018-Jun-05 14:00N 32°21' W 090°57'3 6.7
2018-Jun-05 13:30N 32°23' W 090°60'3 7.0
2018-Jun-05 13:01N 32°26' W 091°02'4 8.6
2018-Jun-05 12:30N 32°28' W 091°06'4 8.0
2018-Jun-05 12:01N 32°32' W 091°06'4 7.9
2018-Jun-05 11:28N 32°36' W 091°08'4 7.8
2018-Jun-05 11:01N 32°39' W 091°09'6 8.4
2018-Jun-05 10:20N 32°43' W 091°03'4 6.7
2018-Jun-05 09:45N 32°44' W 091°08'2 7.6
2018-Jun-05 09:30N 32°45' W 091°09'4 8.2
2018-Jun-05 09:00N 32°49' W 091°09'  

Dump ship's entire track history